createdAt,value
2018-09-28T00:00:10.953Z,17.57
2018-09-28T00:01:10.977Z,17.54
2018-09-28T00:02:11.000Z,17.55
2018-09-28T00:03:11.019Z,17.54
2018-09-28T00:04:11.038Z,17.41
2018-09-28T00:05:11.075Z,17.40
2018-09-28T00:06:11.081Z,17.47
2018-09-28T00:07:11.098Z,17.41
2018-09-28T00:08:11.119Z,17.43
2018-09-28T00:09:11.227Z,17.46
2018-09-28T00:10:11.159Z,17.50
2018-09-28T00:11:11.179Z,17.54
2018-09-28T00:12:11.217Z,17.53
2018-09-28T00:13:11.216Z,17.51
2018-09-28T00:14:11.249Z,17.51
2018-09-28T00:15:11.259Z,17.44
2018-09-28T00:16:11.287Z,17.53
2018-09-28T00:17:11.327Z,17.46
2018-09-28T00:18:11.325Z,17.43
2018-09-28T00:19:11.335Z,17.38
2018-09-28T00:20:11.364Z,17.41
2018-09-28T00:21:11.389Z,17.40
2018-09-28T00:22:11.408Z,17.43
2018-09-28T00:23:11.437Z,17.43
2018-09-28T00:24:11.437Z,17.47
2018-09-28T00:25:11.466Z,17.46
2018-09-28T00:26:11.482Z,17.40
2018-09-28T00:27:11.500Z,17.38
2018-09-28T00:28:11.540Z,17.46
2018-09-28T00:29:11.539Z,17.41
2018-09-28T00:30:11.617Z,17.41
2018-09-28T00:31:11.580Z,17.43
2018-09-28T00:32:11.597Z,17.46
2018-09-28T00:33:11.629Z,17.48
2018-09-28T00:34:11.693Z,17.40
2018-09-28T00:35:11.667Z,17.43
2018-09-28T00:36:11.677Z,17.47
2018-09-28T00:37:11.711Z,17.46
2018-09-28T00:38:11.719Z,17.38
2018-09-28T00:39:11.754Z,17.44
2018-09-28T00:40:11.761Z,17.46
2018-09-28T00:41:11.799Z,17.44
2018-09-28T00:42:11.796Z,17.36
2018-09-28T00:43:11.821Z,17.43
2018-09-28T00:44:11.847Z,17.32
2018-09-28T00:45:11.859Z,17.30
2018-09-28T00:46:11.882Z,17.32
2018-09-28T00:47:11.905Z,17.30
2018-09-28T00:48:11.915Z,17.32
2018-09-28T00:49:11.937Z,17.35
2018-09-28T00:50:11.964Z,17.33
2018-09-28T00:51:11.988Z,17.28
2018-09-28T00:52:11.996Z,17.29
2018-09-28T00:53:12.018Z,17.28
2018-09-28T00:54:12.050Z,17.29
2018-09-28T00:55:12.062Z,17.29
2018-09-28T00:56:12.074Z,17.29
2018-09-28T00:57:12.097Z,17.29
2018-09-28T00:58:12.161Z,17.33
2018-09-28T00:59:12.138Z,17.33
2018-09-28T01:00:12.166Z,17.29
2018-09-28T01:01:12.180Z,17.32
2018-09-28T01:02:12.201Z,17.29
2018-09-28T01:03:12.224Z,17.30
2018-09-28T01:04:12.240Z,17.28
2018-09-28T01:05:12.258Z,17.29
2018-09-28T01:06:12.275Z,17.30
2018-09-28T01:07:12.301Z,17.26
2018-09-28T01:08:12.327Z,17.30
2018-09-28T01:09:12.493Z,17.28
2018-09-28T01:10:12.361Z,17.28
2018-09-28T01:11:12.383Z,17.28
2018-09-28T01:12:12.415Z,17.32
2018-09-28T01:13:12.420Z,17.29
2018-09-28T01:14:12.440Z,17.29
2018-09-28T01:15:12.461Z,17.26
2018-09-28T01:16:12.484Z,17.33
2018-09-28T01:17:12.504Z,17.33
2018-09-28T01:18:12.516Z,17.35
2018-09-28T01:19:12.538Z,17.29
2018-09-28T01:20:12.559Z,17.26
2018-09-28T01:21:12.579Z,17.28
2018-09-28T01:22:12.600Z,17.17
2018-09-28T01:23:12.627Z,17.17
2018-09-28T01:24:12.643Z,17.32
2018-09-28T01:25:12.664Z,17.30
2018-09-28T01:26:12.747Z,17.29
2018-09-28T01:27:12.714Z,17.29
2018-09-28T01:28:12.725Z,17.28
2018-09-28T01:29:12.758Z,17.17
2018-09-28T01:30:12.762Z,17.32
2018-09-28T01:31:12.771Z,17.25
2018-09-28T01:32:12.791Z,17.28
2018-09-28T01:33:12.814Z,17.29
2018-09-28T01:34:12.829Z,17.28
2018-09-28T01:35:12.860Z,17.33
2018-09-28T01:36:12.881Z,17.32
2018-09-28T01:37:12.901Z,17.29
2018-09-28T01:38:12.917Z,17.26
2018-09-28T01:39:12.939Z,17.30
2018-09-28T01:40:12.959Z,17.28
2018-09-28T01:41:12.985Z,17.29
2018-09-28T01:42:13.002Z,17.13
2018-09-28T01:43:13.020Z,17.18
2018-09-28T01:44:13.033Z,17.33
2018-09-28T01:45:13.054Z,17.35
2018-09-28T01:46:13.080Z,17.30
2018-09-28T01:47:13.103Z,17.30
2018-09-28T01:48:13.165Z,17.18
2018-09-28T01:49:13.133Z,17.26
2018-09-28T01:50:13.181Z,17.22
2018-09-28T01:51:13.181Z,17.29
2018-09-28T01:52:13.190Z,17.26
2018-09-28T01:53:13.231Z,17.17
2018-09-28T01:54:13.235Z,17.14
2018-09-28T01:55:13.253Z,17.14
2018-09-28T01:56:13.269Z,17.17
2018-09-28T01:57:13.292Z,17.25
2018-09-28T01:58:13.314Z,17.30
2018-09-28T01:59:13.337Z,17.30
2018-09-28T02:00:13.362Z,17.29
2018-09-28T02:01:13.456Z,17.26
2018-09-28T02:02:13.406Z,17.17
2018-09-28T02:03:13.414Z,17.18
2018-09-28T02:04:13.429Z,17.13
2018-09-28T02:05:13.447Z,17.13
2018-09-28T02:06:13.474Z,17.13
2018-09-28T02:07:13.528Z,17.15
2018-09-28T02:08:13.516Z,17.13
2018-09-28T02:09:13.538Z,17.10
2018-09-28T02:10:13.554Z,17.11
2018-09-28T02:11:13.579Z,17.08
2018-09-28T02:12:13.587Z,17.08
2018-09-28T02:13:13.619Z,17.15
2018-09-28T02:14:13.633Z,17.14
2018-09-28T02:15:13.662Z,17.15
2018-09-28T02:16:13.682Z,17.17
2018-09-28T02:17:13.689Z,17.14
2018-09-28T02:18:13.712Z,17.17
2018-09-28T02:19:13.728Z,17.22
2018-09-28T02:20:13.752Z,17.14
2018-09-28T02:21:13.767Z,17.11
2018-09-28T02:22:13.792Z,17.06
2018-09-28T02:23:13.806Z,16.96
2018-09-28T02:24:13.831Z,17.00
2018-09-28T02:25:13.872Z,16.98
2018-09-28T02:26:13.875Z,17.03
2018-09-28T02:27:13.887Z,17.13
2018-09-28T02:28:13.908Z,17.11
2018-09-28T02:29:13.942Z,17.20
2018-09-28T02:30:13.964Z,17.13
2018-09-28T02:31:13.966Z,17.10
2018-09-28T02:32:13.997Z,17.10
2018-09-28T02:33:14.011Z,17.14
2018-09-28T02:34:14.030Z,17.11
2018-09-28T02:35:14.047Z,17.07
2018-09-28T02:36:14.064Z,17.14
2018-09-28T02:37:14.097Z,17.08
2018-09-28T02:38:14.108Z,17.08
2018-09-28T02:39:14.129Z,16.96
2018-09-28T02:40:14.174Z,16.99
2018-09-28T02:41:14.168Z,16.99
2018-09-28T02:42:14.218Z,17.00
2018-09-28T02:43:14.203Z,16.98
2018-09-28T02:44:14.243Z,17.07
2018-09-28T02:45:14.252Z,16.99
2018-09-28T02:46:14.277Z,16.96
2018-09-28T02:47:14.297Z,17.08
2018-09-28T02:48:14.308Z,17.03
2018-09-28T02:49:14.330Z,17.03
2018-09-28T02:50:14.343Z,16.95
2018-09-28T02:51:14.367Z,17.03
2018-09-28T02:52:14.380Z,17.04
2018-09-28T02:53:14.456Z,16.99
2018-09-28T02:54:14.433Z,16.99
2018-09-28T02:55:14.446Z,17.03
2018-09-28T02:56:14.485Z,16.96
2018-09-28T02:57:14.489Z,17.00
2018-09-28T02:58:14.504Z,17.00
2018-09-28T02:59:14.518Z,16.96
2018-09-28T03:00:14.539Z,17.04
2018-09-28T03:01:14.560Z,16.98
2018-09-28T03:02:14.585Z,16.96
2018-09-28T03:03:14.595Z,16.98
2018-09-28T03:04:14.719Z,17.00
2018-09-28T03:05:14.639Z,17.04
2018-09-28T03:06:14.722Z,17.00
2018-09-28T03:07:14.680Z,17.00
2018-09-28T03:08:14.708Z,17.07
2018-09-28T03:09:14.728Z,17.08
2018-09-28T03:10:14.751Z,17.13
2018-09-28T03:11:14.760Z,17.06
2018-09-28T03:12:14.781Z,16.99
2018-09-28T03:13:14.812Z,17.06
2018-09-28T03:14:14.821Z,16.99
2018-09-28T03:15:14.836Z,17.06
2018-09-28T03:16:14.857Z,17.00
2018-09-28T03:17:14.900Z,17.04
2018-09-28T03:18:14.900Z,16.92
2018-09-28T03:19:14.916Z,16.96
2018-09-28T03:20:14.942Z,17.03
2018-09-28T03:21:14.965Z,16.96
2018-09-28T03:22:14.972Z,17.03
2018-09-28T03:23:15.002Z,16.90
2018-09-28T03:24:15.017Z,16.98
2018-09-28T03:25:15.038Z,16.98
2018-09-28T03:26:15.047Z,16.93
2018-09-28T03:27:15.077Z,16.96
2018-09-28T03:28:15.101Z,17.03
2018-09-28T03:29:15.113Z,16.95
2018-09-28T03:30:15.134Z,16.86
2018-09-28T03:31:15.156Z,16.95
2018-09-28T03:32:15.181Z,16.93
2018-09-28T03:33:15.192Z,16.95
2018-09-28T03:34:15.205Z,17.04
2018-09-28T03:35:15.234Z,16.86
2018-09-28T03:36:15.250Z,16.92
2018-09-28T03:37:15.276Z,16.95
2018-09-28T03:38:15.286Z,16.95
2018-09-28T03:39:15.320Z,16.90
2018-09-28T03:40:15.331Z,16.90
2018-09-28T03:41:15.343Z,16.88
2018-09-28T03:42:15.366Z,16.89
2018-09-28T03:43:15.457Z,16.90
2018-09-28T03:44:15.414Z,16.92
2018-09-28T03:45:15.438Z,16.88
2018-09-28T03:46:15.461Z,16.89
2018-09-28T03:47:15.461Z,16.90
2018-09-28T03:48:15.488Z,16.88
2018-09-28T03:49:15.511Z,16.89
2018-09-28T03:50:15.528Z,16.98
2018-09-28T03:51:15.550Z,16.95
2018-09-28T03:52:15.579Z,16.93
2018-09-28T03:53:15.617Z,16.93
2018-09-28T03:54:15.621Z,16.90
2018-09-28T03:55:15.621Z,16.88
2018-09-28T03:56:15.771Z,16.83
2018-09-28T03:57:15.664Z,16.90
2018-09-28T03:58:15.688Z,16.78
2018-09-28T03:59:15.711Z,16.80
2018-09-28T04:00:15.721Z,16.77
2018-09-28T04:01:15.735Z,16.85
2018-09-28T04:02:15.772Z,16.80
2018-09-28T04:03:15.787Z,16.81
2018-09-28T04:04:15.792Z,16.89
2018-09-28T04:05:15.828Z,16.77
2018-09-28T04:06:15.841Z,16.80
2018-09-28T04:07:15.858Z,16.80
2018-09-28T04:08:15.881Z,16.86
2018-09-28T04:09:15.908Z,16.89
2018-09-28T04:10:15.915Z,16.81
2018-09-28T04:11:15.945Z,16.80
2018-09-28T04:12:15.969Z,16.81
2018-09-28T04:13:15.979Z,16.74
2018-09-28T04:14:15.997Z,16.68
2018-09-28T04:15:16.103Z,16.75
2018-09-28T04:16:16.037Z,16.73
2018-09-28T04:17:16.062Z,16.68
2018-09-28T04:18:16.083Z,16.68
2018-09-28T04:19:16.097Z,16.68
2018-09-28T04:20:16.110Z,16.70
2018-09-28T04:21:16.128Z,16.65
2018-09-28T04:22:16.146Z,16.74
2018-09-28T04:23:16.168Z,16.73
2018-09-28T04:24:17.025Z,16.70
2018-09-28T04:25:17.026Z,16.73
2018-09-28T04:26:16.249Z,16.71
2018-09-28T04:27:16.260Z,16.75
2018-09-28T04:28:16.270Z,16.70
2018-09-28T04:29:16.311Z,16.67
2018-09-28T04:30:16.309Z,16.71
2018-09-28T04:31:16.331Z,16.70
2018-09-28T04:32:16.346Z,16.71
2018-09-28T04:33:16.367Z,16.74
2018-09-28T04:34:16.384Z,16.81
2018-09-28T04:35:16.434Z,16.73
2018-09-28T04:36:16.429Z,16.74
2018-09-28T04:37:16.503Z,16.70
2018-09-28T04:38:16.463Z,16.60
2018-09-28T04:39:16.481Z,16.67
2018-09-28T04:40:16.511Z,16.62
2018-09-28T04:41:16.522Z,16.63
2018-09-28T04:42:16.541Z,16.71
2018-09-28T04:43:16.568Z,16.71
2018-09-28T04:44:16.576Z,16.58
2018-09-28T04:45:16.675Z,16.60
2018-09-28T04:46:16.622Z,16.62
2018-09-28T04:47:16.640Z,16.67
2018-09-28T04:48:16.767Z,16.67
2018-09-28T04:49:16.679Z,16.65
2018-09-28T04:50:16.693Z,16.55
2018-09-28T04:51:16.717Z,16.52
2018-09-28T04:52:16.731Z,16.53
2018-09-28T04:53:16.750Z,16.53
2018-09-28T04:54:16.782Z,16.56
2018-09-28T04:55:16.796Z,16.53
2018-09-28T04:56:16.809Z,16.52
2018-09-28T04:57:16.832Z,16.45
2018-09-28T04:58:16.861Z,16.50
2018-09-28T04:59:16.887Z,16.59
2018-09-28T05:00:16.892Z,16.60
2018-09-28T05:01:16.916Z,16.60
2018-09-28T05:02:16.927Z,16.55
2018-09-28T05:03:17.537Z,16.58
2018-09-28T05:04:16.972Z,16.55
2018-09-28T05:05:17.076Z,16.59
2018-09-28T05:06:17.004Z,16.55
2018-09-28T05:07:17.026Z,16.58
2018-09-28T05:08:17.047Z,16.65
2018-09-28T05:09:17.065Z,16.58
2018-09-28T05:10:17.090Z,16.63
2018-09-28T05:11:17.116Z,16.71
2018-09-28T05:12:17.123Z,16.73
2018-09-28T05:13:17.145Z,16.58
2018-09-28T05:14:17.164Z,16.56
2018-09-28T05:15:17.187Z,16.52
2018-09-28T05:16:17.208Z,16.50
2018-09-28T05:17:17.218Z,16.52
2018-09-28T05:18:17.258Z,16.52
2018-09-28T05:19:17.284Z,16.48
2018-09-28T05:20:17.283Z,16.58
2018-09-28T05:21:17.298Z,16.56
2018-09-28T05:22:17.318Z,16.52
2018-09-28T05:23:17.349Z,16.52
2018-09-28T05:24:17.354Z,16.55
2018-09-28T05:25:17.470Z,16.55
2018-09-28T05:26:17.391Z,16.55
2018-09-28T05:27:17.470Z,16.55
2018-09-28T05:28:17.426Z,16.56
2018-09-28T05:29:18.100Z,16.56
2018-09-28T05:30:17.470Z,16.70
2018-09-28T05:31:17.572Z,16.59
2018-09-28T05:32:17.609Z,16.67
2018-09-28T05:33:17.527Z,16.65
2018-09-28T05:34:17.548Z,16.65
2018-09-28T05:35:17.568Z,16.65
2018-09-28T05:36:17.587Z,16.50
2018-09-28T05:37:17.689Z,16.52
2018-09-28T05:38:17.626Z,16.53
2018-09-28T05:39:17.714Z,16.58
2018-09-28T05:40:17.779Z,16.56
2018-09-28T05:41:17.679Z,16.58
2018-09-28T05:42:17.700Z,16.67
2018-09-28T05:43:17.732Z,16.67
2018-09-28T05:44:17.744Z,16.65
2018-09-28T05:45:17.763Z,16.65
2018-09-28T05:46:17.844Z,16.55
2018-09-28T05:47:17.805Z,16.52
2018-09-28T05:48:17.816Z,16.53
2018-09-28T05:49:17.836Z,16.44
2018-09-28T05:50:17.858Z,16.53
2018-09-28T05:51:17.893Z,16.56
2018-09-28T05:52:17.898Z,16.52
2018-09-28T05:53:17.926Z,16.58
2018-09-28T05:54:17.929Z,16.55
2018-09-28T05:55:17.977Z,16.59
2018-09-28T05:56:17.974Z,16.58
2018-09-28T05:57:17.994Z,16.48
2018-09-28T05:58:18.012Z,16.56
2018-09-28T05:59:18.036Z,16.52
2018-09-28T06:00:18.561Z,16.48
2018-09-28T06:01:18.069Z,16.42
2018-09-28T06:02:18.091Z,16.48
2018-09-28T06:03:18.102Z,16.55
2018-09-28T06:04:18.119Z,16.56
2018-09-28T06:05:18.160Z,16.58
2018-09-28T06:06:18.161Z,16.56
2018-09-28T06:07:18.183Z,16.55
2018-09-28T06:08:18.266Z,16.60
2018-09-28T06:09:18.241Z,16.58
2018-09-28T06:10:18.245Z,16.59
2018-09-28T06:11:18.258Z,16.58
2018-09-28T06:12:18.280Z,16.48
2018-09-28T06:13:18.297Z,16.50
2018-09-28T06:14:18.325Z,16.52
2018-09-28T06:15:19.061Z,16.45
2018-09-28T06:16:19.076Z,16.52
2018-09-28T06:17:18.405Z,16.59
2018-09-28T06:18:18.397Z,16.56
2018-09-28T06:19:18.516Z,16.53
2018-09-28T06:20:18.497Z,16.62
2018-09-28T06:21:18.467Z,16.63
2018-09-28T06:22:18.477Z,16.60
2018-09-28T06:23:18.493Z,16.55
2018-09-28T06:24:18.581Z,16.67
2018-09-28T06:25:18.536Z,16.68
2018-09-28T06:26:18.551Z,16.68
2018-09-28T06:27:18.574Z,16.73
2018-09-28T06:28:18.588Z,16.67
2018-09-28T06:29:18.622Z,16.60
2018-09-28T06:30:18.658Z,16.53
2018-09-28T06:31:18.650Z,16.58
2018-09-28T06:32:18.671Z,16.62
2018-09-28T06:33:18.688Z,16.60
2018-09-28T06:34:18.705Z,16.56
2018-09-28T06:35:18.740Z,16.55
2018-09-28T06:36:18.795Z,16.58
2018-09-28T06:37:18.762Z,16.60
2018-09-28T06:38:18.798Z,16.73
2018-09-28T06:39:18.808Z,16.71
2018-09-28T06:40:18.836Z,16.73
2018-09-28T06:41:18.841Z,16.73
2018-09-28T06:42:18.930Z,16.74
2018-09-28T06:43:18.881Z,16.71
2018-09-28T06:44:18.902Z,16.74
2018-09-28T06:45:18.928Z,16.71
2018-09-28T06:46:18.942Z,16.74
2018-09-28T06:47:18.964Z,16.73
2018-09-28T06:48:18.984Z,16.80
2018-09-28T06:49:19.014Z,16.85
2018-09-28T06:50:19.014Z,16.85
2018-09-28T06:51:19.056Z,16.73
2018-09-28T06:52:19.052Z,16.83
2018-09-28T06:53:19.076Z,16.86
2018-09-28T06:54:19.160Z,16.86
2018-09-28T06:55:19.119Z,16.71
2018-09-28T06:56:19.132Z,16.78
2018-09-28T06:57:19.159Z,16.86
2018-09-28T06:58:19.251Z,16.75
2018-09-28T06:59:19.199Z,16.68
2018-09-28T07:00:19.335Z,16.77
2018-09-28T07:01:19.244Z,16.74
2018-09-28T07:02:19.254Z,16.74
2018-09-28T07:03:19.275Z,16.70
2018-09-28T07:04:19.289Z,16.68
2018-09-28T07:05:19.311Z,16.73
2018-09-28T07:06:19.392Z,16.68
2018-09-28T07:07:19.350Z,16.73
2018-09-28T07:08:19.395Z,16.75
2018-09-28T07:09:19.407Z,16.68
2018-09-28T07:10:19.413Z,16.78
2018-09-28T07:11:19.532Z,16.65
2018-09-28T07:12:19.519Z,16.74
2018-09-28T07:13:19.469Z,16.74
2018-09-28T07:14:19.490Z,16.71
2018-09-28T07:15:19.507Z,16.81
2018-09-28T07:16:19.603Z,16.88
2018-09-28T07:17:19.551Z,16.85
2018-09-28T07:18:19.629Z,16.75
2018-09-28T07:19:19.591Z,16.85
2018-09-28T07:20:19.605Z,16.81
2018-09-28T07:21:19.626Z,16.77
2018-09-28T07:22:19.643Z,16.89
2018-09-28T07:23:19.667Z,16.83
2018-09-28T07:24:19.811Z,16.85
2018-09-28T07:25:19.717Z,16.89
2018-09-28T07:26:19.729Z,16.93
2018-09-28T07:27:19.749Z,16.83
2018-09-28T07:28:19.781Z,16.88
2018-09-28T07:29:19.784Z,16.83
2018-09-28T07:30:19.927Z,16.86
2018-09-28T07:31:19.828Z,16.88
2018-09-28T07:32:19.843Z,16.96
2018-09-28T07:33:19.857Z,16.96
2018-09-28T07:34:19.883Z,16.96
2018-09-28T07:35:19.899Z,16.93
2018-09-28T07:36:20.011Z,16.90
2018-09-28T07:37:19.962Z,16.88
2018-09-28T07:38:19.960Z,16.88
2018-09-28T07:39:19.988Z,16.89
2018-09-28T07:40:19.999Z,16.93
2018-09-28T07:41:20.016Z,16.95
2018-09-28T07:42:20.078Z,16.95
2018-09-28T07:43:20.068Z,16.93
2018-09-28T07:44:20.101Z,16.92
2018-09-28T07:45:20.099Z,16.96
2018-09-28T07:46:20.128Z,16.93
2018-09-28T07:47:20.149Z,16.93
2018-09-28T07:48:20.183Z,16.99
2018-09-28T07:49:20.217Z,16.95
2018-09-28T07:50:20.198Z,16.92
2018-09-28T07:51:20.273Z,17.00
2018-09-28T07:52:20.287Z,16.95
2018-09-28T07:53:20.270Z,16.98
2018-09-28T07:54:20.294Z,16.92
2018-09-28T07:55:20.308Z,16.96
2018-09-28T07:56:20.323Z,17.00
2018-09-28T07:57:20.344Z,16.99
2018-09-28T07:58:20.359Z,16.98
2018-09-28T07:59:20.382Z,16.98
2018-09-28T08:00:20.402Z,16.99
2018-09-28T08:01:20.415Z,16.96
2018-09-28T08:02:20.454Z,17.03
2018-09-28T08:03:20.607Z,16.99
2018-09-28T08:04:20.495Z,16.96
2018-09-28T08:05:20.504Z,16.96
2018-09-28T08:06:20.526Z,16.98
2018-09-28T08:07:20.542Z,16.98
2018-09-28T08:08:20.571Z,16.98
2018-09-28T08:09:20.583Z,17.08
2018-09-28T08:10:20.615Z,17.07
2018-09-28T08:11:20.623Z,17.18
2018-09-28T08:12:20.642Z,17.07
2018-09-28T08:13:20.667Z,17.10
2018-09-28T08:14:20.680Z,17.06
2018-09-28T08:15:20.705Z,17.08
2018-09-28T08:16:20.733Z,17.14
2018-09-28T08:17:20.755Z,17.15
2018-09-28T08:18:20.766Z,17.18
2018-09-28T08:19:20.789Z,17.22
2018-09-28T08:20:20.816Z,17.17
2018-09-28T08:21:20.842Z,17.25
2018-09-28T08:22:20.852Z,17.29
2018-09-28T08:23:20.885Z,17.28
2018-09-28T08:24:20.885Z,17.25
2018-09-28T08:25:20.913Z,17.33
2018-09-28T08:26:20.932Z,17.28
2018-09-28T08:27:21.094Z,17.35
2018-09-28T08:28:20.974Z,17.36
2018-09-28T08:29:21.002Z,17.33
2018-09-28T08:30:21.019Z,17.32
2018-09-28T08:31:21.059Z,17.35
2018-09-28T08:32:21.046Z,17.33
2018-09-28T08:33:21.070Z,17.41
2018-09-28T08:34:21.089Z,17.46
2018-09-28T08:35:21.130Z,17.38
2018-09-28T08:36:21.193Z,17.41
2018-09-28T08:37:21.158Z,17.30
2018-09-28T08:38:21.166Z,17.40
2018-09-28T08:39:21.214Z,17.35
2018-09-28T08:40:21.222Z,17.40
2018-09-28T08:41:21.230Z,17.40
2018-09-28T08:42:21.281Z,17.43
2018-09-28T08:43:21.273Z,17.40
2018-09-28T08:44:21.374Z,17.44
2018-09-28T08:45:21.320Z,17.55
2018-09-28T08:46:21.340Z,17.59
2018-09-28T08:47:21.361Z,17.53
2018-09-28T08:48:21.372Z,17.53
2018-09-28T08:49:21.449Z,17.54
2018-09-28T08:50:21.429Z,17.54
2018-09-28T08:51:21.439Z,17.54
2018-09-28T08:52:21.455Z,17.51
2018-09-28T08:53:21.480Z,17.57
2018-09-28T08:54:21.507Z,17.57
2018-09-28T08:55:21.618Z,17.62
2018-09-28T08:56:21.550Z,17.71
2018-09-28T08:57:21.573Z,17.66
2018-09-28T08:58:21.579Z,17.70
2018-09-28T08:59:21.623Z,17.73
2018-09-28T09:00:21.622Z,17.69
2018-09-28T09:01:21.660Z,17.74
2018-09-28T09:02:21.669Z,17.76
2018-09-28T09:03:21.691Z,17.69
2018-09-28T09:04:21.710Z,17.78
2018-09-28T09:05:21.755Z,17.78
2018-09-28T09:06:21.760Z,17.76
2018-09-28T09:07:21.778Z,17.76
2018-09-28T09:08:21.787Z,17.78
2018-09-28T09:09:21.822Z,17.82
2018-09-28T09:10:21.838Z,17.84
2018-09-28T09:11:21.848Z,17.79
2018-09-28T09:12:21.881Z,17.79
2018-09-28T09:13:21.896Z,17.81
2018-09-28T09:14:21.920Z,17.87
2018-09-28T09:15:21.946Z,17.88
2018-09-28T09:16:21.971Z,17.82
2018-09-28T09:17:22.093Z,17.95
2018-09-28T09:18:22.070Z,17.88
2018-09-28T09:19:22.042Z,17.92
2018-09-28T09:20:22.044Z,17.82
2018-09-28T09:21:22.058Z,17.92
2018-09-28T09:22:22.079Z,17.94
2018-09-28T09:23:22.115Z,17.91
2018-09-28T09:24:22.125Z,17.89
2018-09-28T09:25:22.146Z,17.94
2018-09-28T09:26:22.160Z,18.04
2018-09-28T09:27:22.220Z,18.03
2018-09-28T09:28:22.204Z,18.02
2018-09-28T09:29:22.233Z,18.00
2018-09-28T09:30:22.353Z,18.07
2018-09-28T09:31:22.267Z,18.04
2018-09-28T09:32:22.307Z,18.00
2018-09-28T09:33:22.317Z,18.09
2018-09-28T09:34:22.349Z,18.02
2018-09-28T09:35:22.404Z,18.07
2018-09-28T09:36:22.437Z,18.07
2018-09-28T09:37:22.406Z,18.12
2018-09-28T09:38:22.443Z,18.15
2018-09-28T09:39:22.452Z,18.09
2018-09-28T09:40:23.140Z,18.15
2018-09-28T09:41:22.486Z,18.12
2018-09-28T09:42:22.521Z,18.15
2018-09-28T09:43:22.541Z,18.17
2018-09-28T09:44:22.547Z,18.19
2018-09-28T09:45:22.571Z,18.18
2018-09-28T09:46:22.711Z,18.19
2018-09-28T09:47:22.624Z,18.17
2018-09-28T09:48:22.679Z,18.15
2018-09-28T09:49:22.673Z,18.21
2018-09-28T09:50:22.679Z,18.15
2018-09-28T09:51:22.706Z,18.15
2018-09-28T09:52:22.722Z,18.24
2018-09-28T09:53:22.761Z,18.21
2018-09-28T09:54:22.757Z,18.18
2018-09-28T09:55:22.793Z,18.21
2018-09-28T09:56:22.805Z,18.24
2018-09-28T09:57:22.832Z,18.21
2018-09-28T09:58:22.887Z,18.28
2018-09-28T09:59:22.866Z,18.27
2018-09-28T10:00:22.894Z,18.29
2018-09-28T10:01:22.910Z,18.25
2018-09-28T10:02:22.953Z,18.22
2018-09-28T10:03:22.957Z,18.24
2018-09-28T10:04:22.972Z,18.33
2018-09-28T10:05:22.999Z,18.34
2018-09-28T10:06:23.021Z,18.34
2018-09-28T10:07:23.041Z,18.36
2018-09-28T10:08:23.064Z,18.29
2018-09-28T10:09:23.083Z,18.36
2018-09-28T10:10:23.108Z,18.37
2018-09-28T10:11:23.125Z,18.34
2018-09-28T10:12:23.200Z,18.36
2018-09-28T10:13:23.173Z,18.34
2018-09-28T10:14:23.191Z,18.37
2018-09-28T10:15:23.205Z,18.40
2018-09-28T10:16:23.252Z,18.40
2018-09-28T10:17:23.259Z,18.40
2018-09-28T10:18:23.281Z,18.39
2018-09-28T10:19:23.456Z,18.49
2018-09-28T10:20:23.335Z,18.55
2018-09-28T10:21:23.355Z,18.46
2018-09-28T10:22:23.444Z,18.46
2018-09-28T10:23:23.388Z,18.52
2018-09-28T10:24:23.411Z,18.49
2018-09-28T10:25:23.422Z,18.59
2018-09-28T10:26:23.467Z,18.50
2018-09-28T10:27:23.525Z,18.58
2018-09-28T10:28:23.502Z,18.49
2018-09-28T10:29:23.521Z,18.58
2018-09-28T10:30:23.542Z,18.52
2018-09-28T10:31:23.559Z,18.52
2018-09-28T10:32:23.590Z,18.54
2018-09-28T10:33:23.655Z,18.50
2018-09-28T10:34:23.655Z,18.52
2018-09-28T10:35:23.636Z,18.54
2018-09-28T10:36:23.667Z,18.55
2018-09-28T10:37:23.689Z,18.58
2018-09-28T10:38:23.702Z,18.62
2018-09-28T10:39:23.771Z,18.64
2018-09-28T10:40:23.782Z,18.65
2018-09-28T10:41:23.768Z,18.65
2018-09-28T10:42:23.798Z,18.64
2018-09-28T10:43:23.817Z,18.67
2018-09-28T10:44:23.932Z,18.68
2018-09-28T10:45:23.910Z,18.67
2018-09-28T10:46:23.947Z,18.67
2018-09-28T10:47:23.900Z,18.67
2018-09-28T10:48:23.925Z,18.64
2018-09-28T10:49:23.997Z,18.70
2018-09-28T10:50:23.993Z,18.70
2018-09-28T10:51:24.021Z,18.76
2018-09-28T10:52:24.335Z,18.72
2018-09-28T10:53:24.043Z,18.61
2018-09-28T10:54:24.057Z,18.74
2018-09-28T10:55:24.076Z,18.80
2018-09-28T10:56:24.102Z,18.84
2018-09-28T10:57:24.450Z,18.76
2018-09-28T10:58:24.168Z,18.73
2018-09-28T10:59:24.157Z,18.74
2018-09-28T11:00:24.203Z,18.80
2018-09-28T11:01:24.208Z,18.86
2018-09-28T11:02:24.234Z,18.86
2018-09-28T11:03:24.339Z,18.91
2018-09-28T11:04:24.294Z,18.99
2018-09-28T11:05:24.302Z,18.90
2018-09-28T11:06:24.320Z,18.94
2018-09-28T11:07:24.332Z,19.08
2018-09-28T11:08:24.429Z,19.01
2018-09-28T11:09:24.471Z,19.05
2018-09-28T11:10:24.447Z,19.13
2018-09-28T11:11:24.429Z,19.05
2018-09-28T11:12:24.444Z,19.23
2018-09-28T11:13:24.483Z,19.21
2018-09-28T11:14:24.508Z,19.23
2018-09-28T11:15:24.584Z,19.28
2018-09-28T11:16:24.539Z,19.35
2018-09-28T11:17:24.570Z,19.35
2018-09-28T11:18:24.591Z,19.38
2018-09-28T11:19:24.608Z,19.39
2018-09-28T11:20:24.642Z,19.40
2018-09-28T11:21:24.706Z,19.46
2018-09-28T11:22:24.675Z,19.50
2018-09-28T11:23:24.705Z,19.50
2018-09-28T11:24:24.732Z,19.63
2018-09-28T11:25:24.758Z,19.58
2018-09-28T11:26:24.781Z,19.63
2018-09-28T11:27:24.911Z,19.70
2018-09-28T11:28:24.826Z,19.72
2018-09-28T11:29:24.844Z,19.87
2018-09-28T11:30:24.867Z,19.93
2018-09-28T11:31:24.896Z,19.93
2018-09-28T11:32:24.928Z,19.94
2018-09-28T11:33:25.036Z,20.06
2018-09-28T11:34:24.963Z,20.18
2018-09-28T11:35:24.982Z,20.21
2018-09-28T11:36:25.005Z,20.28
2018-09-28T11:37:25.047Z,20.38
2018-09-28T11:38:25.055Z,20.50
2018-09-28T11:39:25.133Z,20.49
2018-09-28T11:40:25.102Z,20.71
2018-09-28T11:41:25.132Z,20.66
2018-09-28T11:42:25.154Z,20.74
2018-09-28T11:43:25.188Z,20.76
2018-09-28T11:44:25.207Z,20.86
2018-09-28T11:45:25.304Z,20.96
2018-09-28T11:46:25.269Z,21.01
2018-09-28T11:47:25.298Z,21.09
2018-09-28T11:48:25.317Z,21.09
2018-09-28T11:49:25.394Z,21.09
2018-09-28T11:50:25.350Z,21.09
2018-09-28T11:51:25.400Z,21.11
2018-09-28T11:52:25.406Z,21.20
2018-09-28T11:53:25.428Z,21.29
2018-09-28T11:54:25.461Z,21.39
2018-09-28T11:55:25.474Z,21.53
2018-09-28T11:56:25.514Z,21.41
2018-09-28T11:57:25.590Z,21.30
2018-09-28T11:58:25.558Z,21.35
2018-09-28T11:59:25.588Z,21.26
2018-09-28T12:00:25.628Z,21.29
2018-09-28T12:01:25.632Z,21.26
2018-09-28T12:02:25.662Z,21.21
2018-09-28T12:03:25.753Z,21.24
2018-09-28T12:05:25.753Z,21.19
2018-09-28T12:06:25.816Z,21.16
2018-09-28T12:07:25.792Z,21.16
2018-09-28T12:08:25.808Z,21.19
2018-09-28T12:09:25.904Z,21.13
2018-09-28T12:10:25.864Z,21.17
2018-09-28T12:11:25.889Z,21.14
2018-09-28T12:12:25.990Z,21.13
2018-09-28T12:13:25.959Z,21.04
2018-09-28T12:14:25.959Z,21.09
2018-09-28T12:15:26.072Z,21.11
2018-09-28T12:16:26.033Z,21.16
2018-09-28T12:17:26.042Z,21.30
2018-09-28T12:18:26.169Z,21.30
2018-09-28T12:19:26.084Z,21.30
2018-09-28T12:20:26.115Z,21.20
2018-09-28T12:21:26.238Z,21.09
2018-09-28T12:22:26.176Z,21.05
2018-09-28T12:23:26.181Z,21.11
2018-09-28T12:24:26.336Z,21.05
2018-09-28T12:25:26.231Z,21.06
2018-09-28T12:26:26.287Z,20.95
2018-09-28T12:27:26.336Z,20.90
2018-09-28T12:28:26.313Z,20.95
2018-09-28T12:29:26.395Z,20.91
2018-09-28T12:30:26.521Z,20.86
2018-09-28T12:31:26.391Z,20.87
2018-09-28T12:32:26.424Z,20.81
2018-09-28T12:33:26.485Z,20.81
2018-09-28T12:34:26.463Z,20.74
2018-09-28T12:35:26.545Z,20.79
2018-09-28T12:36:26.597Z,20.76
2018-09-28T12:37:26.540Z,20.87
2018-09-28T12:38:26.567Z,20.83
2018-09-28T12:39:26.638Z,20.81
2018-09-28T12:40:26.642Z,20.77
2018-09-28T12:41:26.630Z,20.79
2018-09-28T12:42:26.685Z,20.80
2018-09-28T12:43:26.693Z,20.71
2018-09-28T12:44:26.717Z,20.71
2018-09-28T12:45:26.871Z,20.69
2018-09-28T12:46:26.754Z,20.68
2018-09-28T12:47:26.798Z,20.66
2018-09-28T12:48:26.875Z,20.69
2018-09-28T12:49:26.828Z,20.62
2018-09-28T12:50:26.976Z,20.72
2018-09-28T12:51:26.871Z,20.76
2018-09-28T12:52:26.906Z,20.62
2018-09-28T12:53:26.955Z,20.68